createdAt,value
2022-08-03T00:01:36.769Z,99236.44
2022-08-03T00:04:06.137Z,99189.09
2022-08-03T00:06:36.994Z,99286.47
2022-08-03T00:09:06.992Z,98980.25
2022-08-03T00:11:34.847Z,99034.44
2022-08-03T00:14:02.056Z,99095.53
2022-08-03T00:16:29.304Z,99057.56
2022-08-03T00:18:56.417Z,99202.03
2022-08-03T00:21:23.828Z,99212.44
2022-08-03T00:23:52.692Z,99043.28
2022-08-03T00:26:21.499Z,99210.75
2022-08-03T00:28:49.541Z,98953.94
2022-08-03T00:31:20.384Z,99217.63
2022-08-03T00:34:04.410Z,99150.50
2022-08-03T00:36:31.717Z,98916.69
2022-08-03T00:38:58.710Z,99160.66
2022-08-03T00:41:25.677Z,99082.44
2022-08-03T00:43:52.882Z,99204.31
2022-08-03T00:46:22.247Z,99002.00
2022-08-03T00:48:53.270Z,99199.38
2022-08-03T00:51:21.685Z,99290.81
2022-08-03T00:53:49.959Z,99274.34
2022-08-03T00:56:18.257Z,99177.91
2022-08-03T00:58:46.824Z,99089.28
2022-08-03T01:01:14.975Z,99272.09
2022-08-03T01:03:42.623Z,99124.16
2022-08-03T01:06:34.163Z,99063.44
2022-08-03T01:09:43.181Z,99064.16
2022-08-03T01:12:33.212Z,99198.88
2022-08-03T01:15:46.567Z,99273.09
2022-08-03T01:18:22.284Z,99141.00
2022-08-03T01:20:56.180Z,99051.63
2022-08-03T01:24:02.653Z,99025.34
2022-08-03T01:27:05.682Z,99292.88
2022-08-03T01:30:08.197Z,99098.31
2022-08-03T01:33:00.792Z,99168.84
2022-08-03T01:35:36.721Z,99078.50
2022-08-03T01:38:22.610Z,99032.25
2022-08-03T01:40:53.964Z,99118.34
2022-08-03T01:44:28.304Z,99104.44
2022-08-03T01:46:17.081Z,99140.47
2022-08-03T01:48:46.425Z,99204.97
2022-08-03T01:51:16.706Z,99162.78
2022-08-03T01:53:44.661Z,99155.16
2022-08-03T01:56:13.263Z,99329.31
2022-08-03T01:58:42.310Z,99208.66
2022-08-03T02:01:10.248Z,99102.66
2022-08-03T02:04:00.782Z,99175.50
2022-08-03T02:07:01.394Z,98929.59
2022-08-03T02:09:23.211Z,99013.00
2022-08-03T02:11:52.430Z,99262.38
2022-08-03T02:14:21.368Z,99191.81
2022-08-03T02:16:50.506Z,99132.19
2022-08-03T02:19:19.644Z,98980.88
2022-08-03T02:21:57.471Z,99011.66
2022-08-03T02:24:30.067Z,99066.38
2022-08-03T02:26:59.299Z,99008.00
2022-08-03T02:29:39.910Z,99025.53
2022-08-03T02:32:14.932Z,99214.59
2022-08-03T02:34:46.863Z,99049.78
2022-08-03T02:37:18.269Z,98971.28
2022-08-03T02:39:47.010Z,99088.66
2022-08-03T02:42:16.497Z,99131.81
2022-08-03T02:44:48.589Z,99106.25
2022-08-03T02:47:21.047Z,99228.19
2022-08-03T02:49:52.306Z,99176.25
2022-08-03T02:52:28.155Z,99167.81
2022-08-03T02:55:04.528Z,98985.44
2022-08-03T02:57:34.358Z,98983.69
2022-08-03T03:00:02.145Z,98936.09
2022-08-03T03:02:30.104Z,99025.09
2022-08-03T03:05:53.458Z,99071.09
2022-08-03T03:07:53.043Z,99218.34
2022-08-03T03:10:22.996Z,99098.31
2022-08-03T03:12:57.446Z,99001.97
2022-08-03T03:15:27.730Z,99179.63
2022-08-03T03:17:56.254Z,99170.13
2022-08-03T03:20:29.851Z,99143.44
2022-08-03T03:23:01.277Z,99094.47
2022-08-03T03:25:32.842Z,99145.88
2022-08-03T03:28:06.457Z,99148.16
2022-08-03T03:30:34.318Z,99012.72
2022-08-03T03:33:02.712Z,99049.28
2022-08-03T03:35:30.201Z,99217.03
2022-08-03T03:37:57.663Z,99272.72
2022-08-03T03:40:25.134Z,99204.88
2022-08-03T03:42:52.139Z,99277.94
2022-08-03T03:45:21.907Z,99146.84
2022-08-03T03:47:49.486Z,99251.31
2022-08-03T03:50:19.360Z,99119.00
2022-08-03T03:52:46.528Z,99019.34
2022-08-03T03:55:18.286Z,99219.16
2022-08-03T03:57:46.091Z,99152.75
2022-08-03T04:00:16.674Z,99226.50
2022-08-03T04:02:44.825Z,99244.03
2022-08-03T04:05:31.215Z,99200.75
2022-08-03T04:08:24.411Z,99319.13
2022-08-03T04:11:09.629Z,99297.94
2022-08-03T04:14:02.671Z,99042.22
2022-08-03T04:16:35.443Z,99291.25
2022-08-03T04:19:09.384Z,99208.88
2022-08-03T04:21:43.206Z,99253.22
2022-08-03T04:24:13.642Z,98984.28
2022-08-03T04:26:43.233Z,99300.34
2022-08-03T04:29:13.743Z,99286.94
2022-08-03T04:31:42.037Z,98930.81
2022-08-03T04:34:09.321Z,99076.81
2022-08-03T04:36:44.852Z,99242.28
2022-08-03T04:39:18.347Z,99346.25
2022-08-03T04:42:06.893Z,99162.44
2022-08-03T04:44:40.463Z,99240.38
2022-08-03T04:47:08.682Z,99168.28
2022-08-03T04:49:38.282Z,99285.72
2022-08-03T04:52:08.627Z,99373.25
2022-08-03T04:54:50.744Z,99343.88
2022-08-03T04:57:22.231Z,99367.84
2022-08-03T05:00:01.250Z,99255.75
2022-08-03T05:02:29.895Z,99181.88
2022-08-03T05:04:57.907Z,99290.59
2022-08-03T05:07:25.359Z,99196.56
2022-08-03T05:10:01.724Z,99280.22
2022-08-03T05:12:32.664Z,99188.00
2022-08-03T05:15:01.761Z,99186.72
2022-08-03T05:17:29.023Z,99199.16
2022-08-03T05:19:56.304Z,99143.41
2022-08-03T05:22:24.056Z,99137.63
2022-08-03T05:24:51.078Z,99198.19
2022-08-03T05:27:21.320Z,99124.38
2022-08-03T05:29:52.211Z,99169.19
2022-08-03T05:32:19.841Z,99213.03
2022-08-03T05:34:47.981Z,99188.06
2022-08-03T05:37:15.235Z,99185.72
2022-08-03T05:39:43.400Z,99127.00
2022-08-03T05:42:10.794Z,99220.25
2022-08-03T05:44:38.827Z,99202.81
2022-08-03T05:47:06.480Z,99098.38
2022-08-03T05:49:33.485Z,99129.09
2022-08-03T05:52:12.396Z,99100.88
2022-08-03T05:54:56.341Z,99189.38
2022-08-03T05:57:26.259Z,99119.56
2022-08-03T05:59:55.761Z,99148.19
2022-08-03T06:02:27.776Z,99081.41
2022-08-03T06:04:55.055Z,99085.50
2022-08-03T06:07:22.031Z,99079.91
2022-08-03T06:10:35.857Z,99012.56
2022-08-03T06:12:37.367Z,99110.53
2022-08-03T06:15:06.329Z,99071.16
2022-08-03T06:17:52.240Z,99070.78
2022-08-03T06:20:21.298Z,99074.53
2022-08-03T06:23:01.278Z,99156.69
2022-08-03T06:25:29.074Z,99056.38
2022-08-03T06:27:56.320Z,99068.44
2022-08-03T06:30:23.353Z,99130.16
2022-08-03T06:32:51.849Z,99034.94
2022-08-03T06:35:20.287Z,99167.22
2022-08-03T06:37:51.665Z,99064.69
2022-08-03T06:40:29.886Z,99055.34
2022-08-03T06:43:02.806Z,99113.88
2022-08-03T06:45:31.805Z,99064.47
2022-08-03T06:48:13.333Z,99088.38
2022-08-03T06:50:42.589Z,99071.84
2022-08-03T06:53:10.318Z,99163.94
2022-08-03T06:55:45.379Z,99051.69
2022-08-03T06:58:12.475Z,99014.50
2022-08-03T07:00:39.466Z,99029.41
2022-08-03T07:03:06.493Z,99110.59
2022-08-03T07:05:35.313Z,99115.66
2022-08-03T07:08:03.165Z,99089.13
2022-08-03T07:10:30.179Z,99056.28
2022-08-03T07:12:57.467Z,99015.31
2022-08-03T07:15:54.128Z,99161.75
2022-08-03T07:18:12.654Z,99132.31
2022-08-03T07:20:40.116Z,99070.16
2022-08-03T07:23:07.096Z,99110.81
2022-08-03T07:25:34.484Z,99081.38
2022-08-03T07:28:03.555Z,99064.28
2022-08-03T07:30:30.678Z,99076.78
2022-08-03T07:32:57.608Z,99183.34
2022-08-03T07:35:25.568Z,99082.53
2022-08-03T07:37:55.060Z,99132.72
2022-08-03T07:40:22.759Z,99153.59
2022-08-03T07:42:52.134Z,99020.41
2022-08-03T07:45:23.388Z,99103.47
2022-08-03T07:47:53.612Z,99070.88
2022-08-03T07:50:22.115Z,99066.41
2022-08-03T07:52:52.837Z,99052.53
2022-08-03T07:55:22.565Z,99073.75
2022-08-03T07:58:22.071Z,99077.19
2022-08-03T08:00:53.160Z,99005.63
2022-08-03T08:03:21.957Z,99057.69
2022-08-03T08:05:49.796Z,99066.59
2022-08-03T08:08:16.711Z,99113.72
2022-08-03T08:10:58.425Z,99113.34
2022-08-03T08:13:26.056Z,99066.59
2022-08-03T08:15:53.150Z,99127.25
2022-08-03T08:18:20.169Z,99078.72
2022-08-03T08:20:47.267Z,99059.75
2022-08-03T08:23:42.336Z,99072.56
2022-08-03T08:26:10.467Z,99117.59
2022-08-03T08:28:37.856Z,99061.41
2022-08-03T08:31:04.807Z,99148.72
2022-08-03T08:34:01.063Z,99063.88
2022-08-03T08:36:20.479Z,99135.50
2022-08-03T08:38:47.764Z,99125.72
2022-08-03T08:41:15.534Z,99127.63
2022-08-03T08:43:42.815Z,99094.59
2022-08-03T08:46:22.736Z,99125.28
2022-08-03T08:48:51.971Z,99083.63
2022-08-03T08:51:21.763Z,99117.88
2022-08-03T08:53:52.967Z,99107.06
2022-08-03T08:56:22.856Z,99075.06
2022-08-03T08:58:54.785Z,99067.72
2022-08-03T09:01:22.188Z,99078.16
2022-08-03T09:03:50.105Z,99125.19
2022-08-03T09:06:17.515Z,99100.38
2022-08-03T09:08:44.485Z,99111.81
2022-08-03T09:11:12.155Z,99120.31
2022-08-03T09:13:39.520Z,99075.88
2022-08-03T09:16:19.645Z,99133.78
2022-08-03T09:18:50.637Z,99066.34
2022-08-03T09:21:31.184Z,99156.78
2022-08-03T09:24:02.685Z,99151.31
2022-08-03T09:26:31.990Z,99065.25
2022-08-03T09:29:14.893Z,99169.16
2022-08-03T09:31:45.904Z,99050.81
2022-08-03T09:34:16.097Z,99162.59
2022-08-03T09:36:51.048Z,99065.28
2022-08-03T09:39:30.107Z,99103.94
2022-08-03T09:42:14.835Z,99112.81
2022-08-03T09:44:49.343Z,99121.69
2022-08-03T09:47:30.671Z,99096.72
2022-08-03T09:50:09.135Z,99133.78
2022-08-03T09:52:51.812Z,99070.19
2022-08-03T09:56:35.490Z,99116.81
2022-08-03T09:58:14.276Z,99099.31
2022-08-03T10:00:59.508Z,99121.09
2022-08-03T10:03:30.180Z,99056.25
2022-08-03T10:05:59.918Z,99107.16
2022-08-03T10:08:27.434Z,99042.00
2022-08-03T10:10:55.035Z,99067.19
2022-08-03T10:13:23.520Z,99116.84
2022-08-03T10:16:23.118Z,99106.94
2022-08-03T10:18:37.944Z,99054.09
2022-08-03T10:21:10.555Z,99115.13
2022-08-03T10:23:40.569Z,99105.19
2022-08-03T10:26:08.485Z,99047.38
2022-08-03T10:28:44.969Z,99070.16
2022-08-03T10:31:14.135Z,99095.91
2022-08-03T10:33:50.634Z,99034.91
2022-08-03T10:36:23.128Z,99066.13
2022-08-03T10:38:56.667Z,99082.69
2022-08-03T10:41:35.589Z,99076.44
2022-08-03T10:44:17.954Z,99096.38
2022-08-03T10:46:51.456Z,99040.69
2022-08-03T10:49:33.575Z,99127.44
2022-08-03T10:52:02.756Z,99072.09
2022-08-03T10:55:07.535Z,99048.56
2022-08-03T10:57:48.969Z,99087.53
2022-08-03T11:00:20.163Z,99060.72
2022-08-03T11:03:09.692Z,99095.81
2022-08-03T11:05:44.621Z,99014.47
2022-08-03T11:08:23.211Z,99055.78
2022-08-03T11:10:53.651Z,99102.81
2022-08-03T11:13:24.069Z,99118.53
2022-08-03T11:15:59.827Z,99011.63
2022-08-03T11:18:29.812Z,98999.69
2022-08-03T11:21:00.656Z,99080.53
2022-08-03T11:24:03.281Z,99027.31
2022-08-03T11:26:33.899Z,99086.41
2022-08-03T11:29:30.564Z,99081.38
2022-08-03T11:31:57.848Z,99035.91
2022-08-03T11:34:26.178Z,99067.06
2022-08-03T11:37:24.581Z,99089.03
2022-08-03T11:39:55.479Z,99031.13
2022-08-03T11:42:22.352Z,99039.31
2022-08-03T11:44:51.553Z,99094.59
2022-08-03T11:47:21.524Z,99049.66
2022-08-03T11:49:51.360Z,99087.16
2022-08-03T11:52:19.466Z,99100.66
2022-08-03T11:54:56.582Z,99037.81
2022-08-03T11:59:18.698Z,99061.78
2022-08-03T12:00:32.707Z,99073.25
2022-08-03T12:03:09.305Z,99052.22
2022-08-03T12:05:56.656Z,99091.66
2022-08-03T12:08:33.086Z,99046.59
2022-08-03T12:11:04.520Z,99037.78
2022-08-03T12:14:43.925Z,99050.22
2022-08-03T12:16:32.823Z,99058.28
2022-08-03T12:19:04.910Z,99058.50
2022-08-03T12:21:32.697Z,99070.16
2022-08-03T12:24:05.099Z,99048.56
2022-08-03T12:26:58.535Z,99013.69
2022-08-03T12:29:27.819Z,99061.50
2022-08-03T12:31:55.944Z,99037.22
2022-08-03T12:34:23.488Z,99032.56
2022-08-03T12:36:57.682Z,99017.50
2022-08-03T12:39:30.801Z,98980.72
2022-08-03T12:41:58.536Z,98991.19
2022-08-03T12:44:36.461Z,98978.66
2022-08-03T12:47:06.881Z,99033.28
2022-08-03T12:49:53.927Z,99013.44
2022-08-03T12:52:22.958Z,98991.56
2022-08-03T12:55:01.035Z,98993.75
2022-08-03T12:57:42.661Z,99030.03
2022-08-03T13:00:19.954Z,99008.41
2022-08-03T13:03:39.063Z,98950.91
2022-08-03T13:05:57.544Z,99033.00
2022-08-03T13:08:25.741Z,98925.25
2022-08-03T13:10:53.677Z,98920.41
2022-08-03T13:13:39.790Z,98984.88
2022-08-03T13:16:06.770Z,99011.78
2022-08-03T13:18:34.067Z,98992.53
2022-08-03T13:21:02.319Z,98987.06
2022-08-03T13:23:29.629Z,98936.16
2022-08-03T13:25:56.623Z,98953.53
2022-08-03T13:28:23.755Z,98963.09
2022-08-03T13:30:50.889Z,98926.91
2022-08-03T13:33:18.473Z,98999.44
2022-08-03T13:35:45.516Z,98985.53
2022-08-03T13:38:12.747Z,98917.41
2022-08-03T13:40:43.525Z,98925.38
2022-08-03T13:43:13.570Z,98932.38
2022-08-03T13:45:40.593Z,98895.88
2022-08-03T13:48:07.831Z,98891.09
2022-08-03T13:50:37.572Z,98967.28
2022-08-03T13:53:07.233Z,98854.59
2022-08-03T13:55:34.228Z,98875.16
2022-08-03T13:58:07.298Z,98943.44
2022-08-03T14:00:35.223Z,98930.97
2022-08-03T14:03:10.794Z,98882.34
2022-08-03T14:05:41.225Z,98812.34
2022-08-03T14:08:09.233Z,98886.63
2022-08-03T14:10:41.949Z,98915.25
2022-08-03T14:13:16.682Z,98943.25
2022-08-03T14:15:49.946Z,98831.34
2022-08-03T14:18:28.404Z,98915.16
2022-08-03T14:21:02.006Z,98847.44
2022-08-03T14:23:33.723Z,98872.94
2022-08-03T14:26:01.124Z,98840.56
2022-08-03T14:28:29.612Z,98818.19
2022-08-03T14:30:56.892Z,98781.00
2022-08-03T14:33:24.382Z,98856.91
2022-08-03T14:35:53.467Z,98927.22
2022-08-03T14:38:21.684Z,98939.75
2022-08-03T14:40:49.238Z,98908.53
2022-08-03T14:43:23.461Z,98809.03
2022-08-03T14:45:53.495Z,98828.22
2022-08-03T14:50:30.174Z,98896.34
2022-08-03T14:51:09.395Z,98864.28
2022-08-03T14:53:36.465Z,98828.03
2022-08-03T14:56:07.941Z,98768.38
2022-08-03T14:58:37.014Z,98858.22
2022-08-03T15:01:04.198Z,98818.44
2022-08-03T15:03:51.242Z,98732.28
2022-08-03T15:06:18.432Z,98813.13
2022-08-03T15:09:00.554Z,98756.53
2022-08-03T15:11:33.483Z,98744.66
2022-08-03T15:14:00.471Z,98795.31
2022-08-03T15:16:29.861Z,98730.81
2022-08-03T15:18:57.075Z,98769.16
2022-08-03T15:21:46.685Z,98803.69
2022-08-03T15:24:13.111Z,98802.22
2022-08-03T15:26:41.781Z,98846.09
2022-08-03T15:29:08.927Z,98787.88
2022-08-03T15:31:56.012Z,98777.88
2022-08-03T15:34:23.072Z,98728.94
2022-08-03T15:36:50.761Z,98704.44
2022-08-03T15:39:19.436Z,98803.28
2022-08-03T15:41:46.466Z,98752.19
2022-08-03T15:44:14.002Z,98749.63
2022-08-03T15:46:41.354Z,98757.72
2022-08-03T15:49:08.328Z,98741.78
2022-08-03T15:51:36.101Z,98720.34
2022-08-03T15:54:06.819Z,98831.91
2022-08-03T15:56:33.893Z,98840.31
2022-08-03T15:59:12.176Z,98681.47
2022-08-03T16:01:41.092Z,98759.09
2022-08-03T16:04:08.304Z,98823.69
2022-08-03T16:06:36.559Z,98837.03
2022-08-03T16:09:23.628Z,98781.13
2022-08-03T16:11:55.609Z,98751.81
2022-08-03T16:14:34.371Z,98736.53
2022-08-03T16:17:05.478Z,98727.13
2022-08-03T16:19:32.730Z,98708.69
2022-08-03T16:22:00.866Z,98733.44
2022-08-03T16:24:28.379Z,98692.03
2022-08-03T16:26:56.611Z,98761.81
2022-08-03T16:29:24.236Z,98753.38
2022-08-03T16:31:53.158Z,98749.94
2022-08-03T16:34:21.173Z,98753.38
2022-08-03T16:36:49.462Z,98642.88
2022-08-03T16:39:17.930Z,98617.84
2022-08-03T16:41:54.176Z,98643.38
2022-08-03T16:44:30.629Z,98752.63
2022-08-03T16:46:59.280Z,98716.78
2022-08-03T16:49:55.873Z,98700.31
2022-08-03T16:52:13.974Z,98653.44
2022-08-03T16:54:44.440Z,98680.56
2022-08-03T16:57:30.050Z,98677.09
2022-08-03T17:00:11.947Z,98702.72
2022-08-03T17:02:48.352Z,98647.16
2022-08-03T17:05:15.816Z,98683.13
2022-08-03T17:07:50.656Z,98687.03
2022-08-03T17:10:26.954Z,98635.22
2022-08-03T17:12:54.721Z,98640.78
2022-08-03T17:15:38.193Z,98647.03
2022-08-03T17:18:13.243Z,98616.75
2022-08-03T17:20:42.678Z,98640.75
2022-08-03T17:23:45.268Z,98666.91
2022-08-03T17:26:21.593Z,98709.22
2022-08-03T17:28:57.706Z,98595.41
2022-08-03T17:31:31.619Z,98658.88
2022-08-03T17:34:04.637Z,98672.28
2022-08-03T17:37:02.839Z,98689.97
2022-08-03T17:39:48.400Z,98702.28
2022-08-03T17:42:30.023Z,98677.41
2022-08-03T17:45:01.783Z,98732.56
2022-08-03T17:47:41.906Z,98679.72
2022-08-03T17:50:25.100Z,98668.81
2022-08-03T17:53:15.515Z,98708.06
2022-08-03T17:56:45.727Z,98675.41
2022-08-03T17:59:50.892Z,98695.34
2022-08-03T18:03:10.950Z,98724.69
2022-08-03T18:06:10.440Z,98729.81
2022-08-03T18:08:34.203Z,98724.78
2022-08-03T18:11:14.543Z,98740.34
2022-08-03T18:14:17.193Z,98699.69
2022-08-03T18:16:52.321Z,98707.94
2022-08-03T18:19:21.720Z,98729.59
2022-08-03T18:22:09.968Z,98699.63
2022-08-03T18:24:38.243Z,98687.50
2022-08-03T18:27:08.171Z,98724.22
2022-08-03T18:29:37.259Z,98731.53
2022-08-03T18:32:12.937Z,98648.22
2022-08-03T18:34:53.306Z,98695.31
2022-08-03T18:37:25.734Z,98668.41
2022-08-03T18:39:57.874Z,98677.28
2022-08-03T18:42:26.932Z,98674.72
2022-08-03T18:44:56.250Z,98660.69
2022-08-03T18:47:51.639Z,98661.66
2022-08-03T18:50:33.964Z,98678.59
2022-08-03T18:54:02.697Z,98641.47
2022-08-03T18:57:05.291Z,98702.47
2022-08-03T19:00:02.886Z,98682.13
2022-08-03T19:02:50.148Z,98593.28
2022-08-03T19:05:23.309Z,98639.63
2022-08-03T19:08:26.007Z,98647.69
2022-08-03T19:11:01.171Z,98629.53
2022-08-03T19:13:50.435Z,98635.66
2022-08-03T19:16:39.444Z,98642.06
2022-08-03T19:19:14.430Z,98596.22
2022-08-03T19:21:45.894Z,98629.00
2022-08-03T19:24:19.874Z,98662.97
2022-08-03T19:26:53.284Z,98668.47
2022-08-03T19:29:24.506Z,98641.84
2022-08-03T19:32:20.923Z,98658.66
2022-08-03T19:34:50.229Z,98666.66
2022-08-03T19:37:22.084Z,98692.09
2022-08-03T19:39:56.543Z,98686.19
2022-08-03T19:42:34.522Z,98673.50
2022-08-03T19:45:11.461Z,98635.16
2022-08-03T19:48:08.043Z,98613.69
2022-08-03T19:50:38.135Z,98623.22
2022-08-03T19:53:14.252Z,98587.41
2022-08-03T19:55:48.842Z,98591.00
2022-08-03T19:58:28.444Z,98639.91
2022-08-03T20:00:56.577Z,98635.88
2022-08-03T20:03:28.240Z,98629.66
2022-08-03T20:06:12.189Z,98648.22
2022-08-03T20:08:44.572Z,98658.81
2022-08-03T20:11:11.866Z,98596.16
2022-08-03T20:13:39.341Z,98615.88
2022-08-03T20:16:06.544Z,98597.03
2022-08-03T20:18:39.252Z,98583.38
2022-08-03T20:21:15.167Z,98606.06
2022-08-03T20:24:01.882Z,98590.66
2022-08-03T20:26:31.862Z,98634.53
2022-08-03T20:29:09.018Z,98671.09
2022-08-03T20:31:37.689Z,98624.38
2022-08-03T20:34:06.774Z,98629.25
2022-08-03T20:36:34.241Z,98621.13
2022-08-03T20:39:02.357Z,98588.00
2022-08-03T20:41:35.522Z,98625.53
2022-08-03T20:44:04.409Z,98624.28
2022-08-03T20:46:44.074Z,98576.59
2022-08-03T20:49:21.276Z,98595.91
2022-08-03T20:51:53.086Z,98608.94
2022-08-03T20:54:29.526Z,98582.66
2022-08-03T20:57:04.293Z,98637.31
2022-08-03T20:59:50.420Z,98577.66
2022-08-03T21:02:29.563Z,98554.03
2022-08-03T21:05:03.537Z,98635.66
2022-08-03T21:10:33.668Z,98554.06
2022-08-03T21:13:08.030Z,98631.19
2022-08-03T21:13:18.111Z,98572.91
2022-08-03T21:16:06.045Z,98642.81
2022-08-03T21:18:43.496Z,98621.75
2022-08-03T21:21:13.745Z,98614.00
2022-08-03T21:23:47.966Z,98656.44
2022-08-03T21:26:22.818Z,98585.94
2022-08-03T21:28:52.346Z,98638.41
2022-08-03T21:31:23.759Z,98600.09
2022-08-03T21:33:59.684Z,98612.44
2022-08-03T21:36:30.903Z,98557.03
2022-08-03T21:38:59.578Z,98662.53
2022-08-03T21:41:32.361Z,98617.38
2022-08-03T21:44:00.973Z,98691.06
2022-08-03T21:46:35.193Z,98615.22
2022-08-03T21:50:07.970Z,98651.31
2022-08-03T21:51:57.512Z,98652.41
2022-08-03T21:54:33.639Z,98640.16
2022-08-03T21:57:05.958Z,98628.34
2022-08-03T21:59:38.108Z,98725.84
2022-08-03T22:02:13.850Z,98681.84
2022-08-03T22:04:56.314Z,98717.88
2022-08-03T22:07:27.430Z,98741.00
2022-08-03T22:09:56.332Z,98701.69
2022-08-03T22:12:26.969Z,98696.03
2022-08-03T22:15:01.075Z,98706.28
2022-08-03T22:17:56.056Z,98627.22
2022-08-03T22:20:22.904Z,98615.13
2022-08-03T22:22:56.076Z,98703.50
2022-08-03T22:25:30.655Z,98663.09
2022-08-03T22:28:04.636Z,98679.56
2022-08-03T22:30:33.173Z,98747.81
2022-08-03T22:33:03.525Z,98690.88
2022-08-03T22:35:47.704Z,98705.44
2022-08-03T22:38:18.985Z,98770.53
2022-08-03T22:40:50.792Z,98671.44
2022-08-03T22:43:17.957Z,98756.09
2022-08-03T22:46:09.248Z,98773.63
2022-08-03T22:48:37.167Z,98719.91
2022-08-03T22:51:08.689Z,98717.59
2022-08-03T22:53:36.481Z,98657.53
2022-08-03T22:56:04.147Z,98683.41
2022-08-03T22:58:31.126Z,98827.19
2022-08-03T23:01:07.955Z,98810.22
2022-08-03T23:03:58.772Z,98697.47
2022-08-03T23:06:35.829Z,98775.75
2022-08-03T23:09:11.095Z,98774.19
2022-08-03T23:11:45.317Z,98699.84
2022-08-03T23:14:21.912Z,98784.13
2022-08-03T23:16:51.153Z,98752.78
2022-08-03T23:19:25.145Z,98693.41
2022-08-03T23:22:05.702Z,98752.06
2022-08-03T23:24:36.899Z,98870.69
2022-08-03T23:27:06.579Z,98733.91
2022-08-03T23:29:37.233Z,98754.53
2022-08-03T23:32:06.347Z,98685.97
2022-08-03T23:34:52.818Z,98844.25
2022-08-03T23:37:20.747Z,98855.00
2022-08-03T23:39:49.051Z,98828.16
2022-08-03T23:42:19.874Z,98830.81
2022-08-03T23:44:52.905Z,98752.69
2022-08-03T23:47:20.299Z,98740.38
2022-08-03T23:49:47.672Z,98828.03
2022-08-03T23:52:25.411Z,98820.38
2022-08-03T23:55:17.187Z,98869.03
2022-08-03T23:58:17.885Z,98833.91
